Time;durP1;ratioP1;P1;durP2;ratioP2;P2;SDS_P1;SDS_P2;PMS_P1;PMS_P2;Temp;Humidity;BMP_temperature;BMP_pressure;BME280_temperature;BME280_humidity;BME280_pressure;Samples;Min_cycle;Max_cycle;Signal;HPM_P1;HPM_P2
2021/04/14 00:01:10;;;;;;;0.75;0.75;;;;;;;;;;5090225;28;20047;-76
2021/04/14 00:03:37;;;;;;;0.85;0.75;;;;;;;;;;5089286;28;20028;-77
2021/04/14 00:06:04;;;;;;;1.13;1.02;;;;;;;;;;5090006;28;20024;-77
2021/04/14 00:08:32;;;;;;;1.13;1.05;;;;;;;;;;5070978;28;20396;-76
2021/04/14 00:10:59;;;;;;;1.20;1.13;;;;;;;;;;5089840;28;20051;-76
2021/04/14 00:13:26;;;;;;;0.65;0.65;;;;;;;;;;5089181;28;20104;-76
2021/04/14 00:15:54;;;;;;;0.88;0.75;;;;;;;;;;5090147;28;20024;-76
2021/04/14 00:18:20;;;;;;;1.67;1.55;;;;;;;;;;5089459;28;20024;-76
2021/04/14 00:20:47;;;;;;;0.90;0.85;;;;;;;;;;5090099;28;20513;-76
2021/04/14 00:23:14;;;;;;;1.30;1.20;;;;;;;;;;5089624;28;20107;-77
2021/04/14 00:25:43;;;;;;;1.00;0.70;;;;;;;;;;5089869;28;20028;-77
2021/04/14 00:28:10;;;;;;;3.08;1.15;;;;;;;;;;5089907;28;20032;-76
2021/04/14 00:30:36;;;;;;;1.77;1.08;;;;;;;;;;5088921;28;20379;-76
2021/04/14 00:33:02;;;;;;;0.90;0.90;;;;;;;;;;5089760;28;20028;-77
2021/04/14 00:35:29;;;;;;;1.08;0.80;;;;;;;;;;5088980;28;20118;-76
2021/04/14 00:37:55;;;;;;;1.42;1.33;;;;;;;;;;5089168;28;20108;-76
2021/04/14 00:40:23;;;;;;;1.27;0.70;;;;;;;;;;5089735;28;20028;-76
2021/04/14 00:42:49;;;;;;;1.75;1.00;;;;;;;;;;5093562;28;20103;-76
2021/04/14 00:45:15;;;;;;;1.30;1.13;;;;;;;;;;5093356;28;20028;-75
2021/04/14 00:47:41;;;;;;;3.45;1.27;;;;;;;;;;5093023;28;20063;-76
2021/04/14 00:50:11;;;;;;;1.65;0.98;;;;;;;;;;5092914;28;20032;-76
2021/04/14 00:52:37;;;;;;;0.90;0.90;;;;;;;;;;5092582;28;20503;-76
2021/04/14 00:55:04;;;;;;;0.70;0.70;;;;;;;;;;5093268;28;20028;-76
2021/04/14 00:57:30;;;;;;;1.00;0.88;;;;;;;;;;5092744;28;20185;-76
2021/04/14 00:59:56;;;;;;;2.38;1.13;;;;;;;;;;5092886;28;20244;-77
2021/04/14 01:02:22;;;;;;;2.08;1.25;;;;;;;;;;5092091;28;20020;-76
2021/04/14 01:04:48;;;;;;;1.30;1.00;;;;;;;;;;5092606;28;20051;-76
2021/04/14 01:07:14;;;;;;;1.63;1.52;;;;;;;;;;5092291;28;20122;-75
2021/04/14 01:09:41;;;;;;;0.90;0.90;;;;;;;;;;5092408;28;20162;-76
2021/04/14 01:12:07;;;;;;;0.98;0.77;;;;;;;;;;5092459;28;20031;-76
2021/04/14 01:14:33;;;;;;;1.85;1.33;;;;;;;;;;5092372;28;20552;-76
2021/04/14 01:16:59;;;;;;;2.65;1.08;;;;;;;;;;5091961;28;20120;-76
2021/04/14 01:19:25;;;;;;;2.67;1.17;;;;;;;;;;5091255;28;20050;-76
2021/04/14 01:21:51;;;;;;;1.73;1.10;;;;;;;;;;5092398;28;20436;-76
2021/04/14 01:24:17;;;;;;;1.10;1.00;;;;;;;;;;5092396;28;20028;-76
2021/04/14 01:26:47;;;;;;;1.58;0.70;;;;;;;;;;5092239;28;20028;-76
2021/04/14 01:29:14;;;;;;;0.80;0.80;;;;;;;;;;5091910;28;20041;-76
2021/04/14 01:31:48;;;;;;;1.33;0.95;;;;;;;;;;5092235;28;20429;-76
2021/04/14 01:34:15;;;;;;;0.95;0.95;;;;;;;;;;5092661;28;20424;-76
2021/04/14 01:36:42;;;;;;;1.25;1.15;;;;;;;;;;5091397;28;20029;-76
2021/04/14 01:39:09;;;;;;;0.88;0.88;;;;;;;;;;5092313;28;20040;-76
2021/04/14 01:41:38;;;;;;;1.70;1.35;;;;;;;;;;5090698;28;20479;-76
2021/04/14 01:44:09;;;;;;;1.65;1.38;;;;;;;;;;5092565;28;20069;-76
2021/04/14 01:46:36;;;;;;;0.95;0.85;;;;;;;;;;5091661;28;20048;-76
2021/04/14 01:49:02;;;;;;;0.70;0.70;;;;;;;;;;5091463;28;20473;-76
2021/04/14 01:51:28;;;;;;;2.65;0.73;;;;;;;;;;5090082;28;20109;-76
2021/04/14 01:53:55;;;;;;;1.48;1.00;;;;;;;;;;5092379;28;20405;-76
2021/04/14 01:56:21;;;;;;;1.45;1.23;;;;;;;;;;5091147;28;20047;-76
2021/04/14 01:58:49;;;;;;;0.85;0.85;;;;;;;;;;5091581;28;20475;-76
2021/04/14 02:01:15;;;;;;;1.52;1.10;;;;;;;;;;5090569;28;20031;-76
2021/04/14 02:03:42;;;;;;;0.63;0.63;;;;;;;;;;5091486;28;20028;-77
2021/04/14 02:06:09;;;;;;;1.30;0.80;;;;;;;;;;5090901;28;20035;-77
2021/04/14 02:08:35;;;;;;;0.93;0.93;;;;;;;;;;5090680;28;20521;-76
2021/04/14 02:11:02;;;;;;;1.45;1.05;;;;;;;;;;5091143;28;20406;-76
2021/04/14 02:13:30;;;;;;;2.88;1.10;;;;;;;;;;5090878;28;20028;-76
2021/04/14 02:15:56;;;;;;;2.00;1.33;;;;;;;;;;5090464;28;20031;-76
2021/04/14 02:18:23;;;;;;;1.35;1.25;;;;;;;;;;5090641;28;20024;-76
2021/04/14 02:20:50;;;;;;;2.15;1.25;;;;;;;;;;5089980;28;20122;-76
2021/04/14 02:23:20;;;;;;;2.13;1.67;;;;;;;;;;5089789;28;20031;-75
2021/04/14 02:25:46;;;;;;;0.63;0.63;;;;;;;;;;5091866;28;20081;-76
2021/04/14 02:28:13;;;;;;;1.15;0.80;;;;;;;;;;5091544;28;20068;-76
2021/04/14 02:30:39;;;;;;;0.95;0.95;;;;;;;;;;5089387;28;20048;-76
2021/04/14 02:33:06;;;;;;;0.93;0.82;;;;;;;;;;5091032;28;20079;-76
2021/04/14 02:35:32;;;;;;;0.77;0.77;;;;;;;;;;5090657;28;20482;-76
2021/04/14 02:37:58;;;;;;;3.85;1.23;;;;;;;;;;5091041;28;20085;-76
2021/04/14 02:40:24;;;;;;;1.13;1.02;;;;;;;;;;5089638;28;20112;-76
2021/04/14 02:42:51;;;;;;;0.93;0.90;;;;;;;;;;5090582;28;20449;-76
2021/04/14 02:45:18;;;;;;;1.23;0.73;;;;;;;;;;5089966;28;20387;-75
2021/04/14 02:47:44;;;;;;;0.85;0.70;;;;;;;;;;5091052;28;20085;-76
2021/04/14 02:50:11;;;;;;;1.35;0.80;;;;;;;;;;5089372;28;20036;-76
2021/04/14 02:52:37;;;;;;;1.30;1.20;;;;;;;;;;5088779;28;20623;-76
2021/04/14 02:55:04;;;;;;;1.52;1.05;;;;;;;;;;5091088;28;20034;-76
2021/04/14 02:57:30;;;;;;;0.85;0.75;;;;;;;;;;5089829;28;20032;-76
2021/04/14 02:59:56;;;;;;;1.52;0.90;;;;;;;;;;5091213;28;20024;-76
2021/04/14 03:02:22;;;;;;;0.80;0.80;;;;;;;;;;5088949;28;20031;-75
2021/04/14 03:04:48;;;;;;;0.80;0.60;;;;;;;;;;5090089;28;20024;-76
2021/04/14 03:07:15;;;;;;;2.83;1.00;;;;;;;;;;5089011;28;20431;-75
2021/04/14 03:09:41;;;;;;;0.75;0.73;;;;;;;;;;5090318;28;20047;-76
2021/04/14 03:12:08;;;;;;;2.10;1.15;;;;;;;;;;5090089;28;20028;-76
2021/04/14 03:14:34;;;;;;;0.68;0.65;;;;;;;;;;5089019;28;20024;-76
2021/04/14 03:17:00;;;;;;;1.17;0.95;;;;;;;;;;5089195;28;20032;-76
2021/04/14 03:19:26;;;;;;;1.25;0.95;;;;;;;;;;5090007;28;20206;-76
2021/04/14 03:21:52;;;;;;;1.17;1.00;;;;;;;;;;5090606;28;20020;-76
2021/04/14 03:24:18;;;;;;;1.88;1.02;;;;;;;;;;5089124;28;20032;-76
2021/04/14 03:26:45;;;;;;;1.42;1.23;;;;;;;;;;5089878;28;20036;-76
2021/04/14 03:29:11;;;;;;;3.75;1.42;;;;;;;;;;5090509;28;20028;-76
2021/04/14 03:31:37;;;;;;;1.85;0.95;;;;;;;;;;5089789;28;20142;-76
2021/04/14 03:34:03;;;;;;;0.90;0.80;;;;;;;;;;5089747;28;20163;-76
2021/04/14 03:36:29;;;;;;;1.25;0.98;;;;;;;;;;5089509;28;20044;-76
2021/04/14 03:38:55;;;;;;;0.95;0.80;;;;;;;;;;5089882;28;20040;-76
2021/04/14 03:41:22;;;;;;;2.05;0.90;;;;;;;;;;5088851;28;20035;-76
2021/04/14 03:43:50;;;;;;;1.73;1.10;;;;;;;;;;5089993;28;20028;-76
2021/04/14 03:46:17;;;;;;;1.38;1.20;;;;;;;;;;5089337;28;20106;-75
2021/04/14 03:48:43;;;;;;;1.85;0.90;;;;;;;;;;5088994;28;20060;-76
2021/04/14 03:51:09;;;;;;;1.45;0.60;;;;;;;;;;5089761;28;20109;-76
2021/04/14 03:53:38;;;;;;;0.77;0.77;;;;;;;;;;5088726;28;20349;-76
2021/04/14 03:56:04;;;;;;;0.82;0.82;;;;;;;;;;5089619;28;20035;-76
2021/04/14 03:58:31;;;;;;;2.78;1.85;;;;;;;;;;5088872;28;20024;-76
2021/04/14 04:00:59;;;;;;;1.48;0.90;;;;;;;;;;5090005;28;20020;-76
2021/04/14 04:03:25;;;;;;;0.65;0.65;;;;;;;;;;5089743;28;20035;-76
2021/04/14 04:05:52;;;;;;;0.80;0.80;;;;;;;;;;5088871;28;20082;-76
2021/04/14 04:08:19;;;;;;;2.22;0.80;;;;;;;;;;5089071;28;20024;-75
2021/04/14 04:10:45;;;;;;;0.90;0.90;;;;;;;;;;5088777;28;20031;-76
2021/04/14 04:13:13;;;;;;;2.13;0.80;;;;;;;;;;5089994;28;20459;-76
2021/04/14 04:15:39;;;;;;;1.88;1.77;;;;;;;;;;5090784;28;20123;-76
2021/04/14 04:18:05;;;;;;;1.52;1.42;;;;;;;;;;5093427;28;20032;-76
2021/04/14 04:20:31;;;;;;;1.20;0.93;;;;;;;;;;5092771;28;20067;-77
2021/04/14 04:22:58;;;;;;;0.98;0.88;;;;;;;;;;5093910;28;20105;-76
2021/04/14 04:25:25;;;;;;;2.55;1.98;;;;;;;;;;5093396;28;20020;-75
2021/04/14 04:27:51;;;;;;;1.88;0.90;;;;;;;;;;5092750;28;20126;-76
2021/04/14 04:30:17;;;;;;;0.90;0.88;;;;;;;;;;5092915;28;20269;-75
2021/04/14 04:32:43;;;;;;;0.75;0.75;;;;;;;;;;5092576;28;20032;-76
2021/04/14 04:35:10;;;;;;;3.05;1.30;;;;;;;;;;5093727;28;20035;-76
2021/04/14 04:37:36;;;;;;;1.30;1.20;;;;;;;;;;5091943;28;20184;-76
2021/04/14 04:40:03;;;;;;;1.65;1.05;;;;;;;;;;5092850;28;20486;-76
2021/04/14 04:42:29;;;;;;;0.90;0.90;;;;;;;;;;5092579;28;20399;-76
2021/04/14 04:44:55;;;;;;;1.60;1.30;;;;;;;;;;5093810;28;20025;-76
2021/04/14 04:47:21;;;;;;;1.27;1.10;;;;;;;;;;5092621;28;20107;-75
2021/04/14 04:49:47;;;;;;;1.38;1.08;;;;;;;;;;5093193;28;20054;-76
2021/04/14 04:52:13;;;;;;;0.55;0.55;;;;;;;;;;5093104;28;20020;-75
2021/04/14 04:54:40;;;;;;;2.20;0.70;;;;;;;;;;5092416;28;20024;-76
2021/04/14 04:57:06;;;;;;;2.13;0.95;;;;;;;;;;5093317;28;20055;-76
2021/04/14 04:59:32;;;;;;;1.33;1.23;;;;;;;;;;5092138;28;20479;-76
2021/04/14 05:01:59;;;;;;;0.88;0.88;;;;;;;;;;5093440;28;20067;-75
2021/04/14 05:04:25;;;;;;;0.80;0.80;;;;;;;;;;5091789;28;20386;-76
2021/04/14 05:06:51;;;;;;;3.33;1.10;;;;;;;;;;5093150;28;20085;-76
2021/04/14 05:09:18;;;;;;;3.35;1.27;;;;;;;;;;5092162;28;20032;-75
2021/04/14 05:11:44;;;;;;;1.10;1.00;;;;;;;;;;5091672;28;20024;-76
2021/04/14 05:14:10;;;;;;;1.65;0.70;;;;;;;;;;5092869;28;20104;-76
2021/04/14 05:16:37;;;;;;;0.95;0.90;;;;;;;;;;5091349;28;20078;-76
2021/04/14 05:19:03;;;;;;;1.05;0.80;;;;;;;;;;5092565;28;20039;-76
2021/04/14 05:21:29;;;;;;;1.65;1.00;;;;;;;;;;5090902;28;20028;-76
2021/04/14 05:23:55;;;;;;;1.80;0.88;;;;;;;;;;5092889;28;20500;-76
2021/04/14 05:26:21;;;;;;;1.00;0.80;;;;;;;;;;5090337;28;20028;-75
2021/04/14 05:28:47;;;;;;;1.40;1.30;;;;;;;;;;5092877;28;20028;-76
2021/04/14 05:31:13;;;;;;;2.00;1.10;;;;;;;;;;5091581;28;20500;-76
2021/04/14 05:33:39;;;;;;;2.85;1.10;;;;;;;;;;5091671;28;20422;-75
2021/04/14 05:36:06;;;;;;;1.42;0.90;;;;;;;;;;5092485;28;20070;-76
2021/04/14 05:38:32;;;;;;;0.77;0.77;;;;;;;;;;5089904;28;20232;-76
2021/04/14 05:40:59;;;;;;;1.98;1.10;;;;;;;;;;5092414;28;20103;-76
2021/04/14 05:43:30;;;;;;;0.60;0.60;;;;;;;;;;5087289;28;20024;-75
2021/04/14 05:46:01;;;;;;;1.60;1.50;;;;;;;;;;5089939;28;20439;-76
2021/04/14 05:48:28;;;;;;;0.80;0.80;;;;;;;;;;5090605;28;20482;-76
2021/04/14 05:50:56;;;;;;;1.02;0.80;;;;;;;;;;5090431;28;20032;-76
2021/04/14 05:53:22;;;;;;;1.88;1.10;;;;;;;;;;5091188;28;20074;-75
2021/04/14 05:55:48;;;;;;;5.63;1.80;;;;;;;;;;5092467;28;20031;-76
2021/04/14 05:58:14;;;;;;;1.65;1.38;;;;;;;;;;5092254;28;20132;-75
2021/04/14 06:00:40;;;;;;;1.77;1.67;;;;;;;;;;5090999;28;20032;-76
2021/04/14 06:03:06;;;;;;;2.20;1.13;;;;;;;;;;5091214;28;20031;-76
2021/04/14 06:05:32;;;;;;;1.02;1.02;;;;;;;;;;5091040;28;20046;-76
2021/04/14 06:07:59;;;;;;;1.50;1.40;;;;;;;;;;5088804;28;20434;-76
2021/04/14 06:10:25;;;;;;;1.42;1.33;;;;;;;;;;5091860;28;20067;-76
2021/04/14 06:12:52;;;;;;;0.77;0.77;;;;;;;;;;5083546;28;20054;-76
2021/04/14 06:15:21;;;;;;;1.67;1.15;;;;;;;;;;5083329;28;20083;-76
2021/04/14 06:17:47;;;;;;;1.52;1.20;;;;;;;;;;5077531;28;20025;-76
2021/04/14 06:20:14;;;;;;;2.08;1.50;;;;;;;;;;5079252;28;20058;-76
2021/04/14 06:22:40;;;;;;;1.42;1.33;;;;;;;;;;5082085;28;20553;-77
2021/04/14 06:25:10;;;;;;;3.72;1.45;;;;;;;;;;5087211;28;20049;-76
2021/04/14 06:30:12;;;;;;;1.90;1.67;;;;;;;;;;5080973;28;20102;-76
2021/04/14 06:32:38;;;;;;;3.25;2.10;;;;;;;;;;5093228;28;20027;-76
2021/04/14 06:35:05;;;;;;;2.10;1.90;;;;;;;;;;5093187;28;20400;-76
2021/04/14 06:37:31;;;;;;;3.95;2.05;;;;;;;;;;5101245;28;20032;-76
2021/04/14 06:43:13;;;;;;;4.03;2.35;;;;;;;;;;5100548;28;20031;-79
2021/04/14 06:45:50;;;;;;;8.32;3.55;;;;;;;;;;5082724;28;20044;-79
2021/04/14 06:48:34;;;;;;;4.85;3.05;;;;;;;;;;5092368;28;20035;-77
2021/04/14 06:51:02;;;;;;;3.80;3.03;;;;;;;;;;5090212;28;20063;-76
2021/04/14 06:53:45;;;;;;;2.28;2.08;;;;;;;;;;5076188;28;20032;-76
2021/04/14 06:56:15;;;;;;;5.47;2.70;;;;;;;;;;5092293;28;20042;-76
2021/04/14 06:59:13;;;;;;;3.40;2.53;;;;;;;;;;5091842;28;20085;-75
2021/04/14 07:01:44;;;;;;;6.68;3.75;;;;;;;;;;5034614;28;20498;-73
2021/04/14 07:04:12;;;;;;;5.65;3.13;;;;;;;;;;5094833;28;20028;-74
2021/04/14 07:06:40;;;;;;;4.53;2.65;;;;;;;;;;5087525;28;20550;-75
2021/04/14 07:09:06;;;;;;;3.78;3.38;;;;;;;;;;5090107;28;20047;-74
2021/04/14 07:11:32;;;;;;;3.10;2.42;;;;;;;;;;5083182;28;20035;-73
2021/04/14 07:13:58;;;;;;;4.15;3.00;;;;;;;;;;5088736;28;20094;-74
2021/04/14 07:16:27;;;;;;;5.00;2.95;;;;;;;;;;5087923;28;20039;-73
2021/04/14 07:18:56;;;;;;;4.65;2.78;;;;;;;;;;5091755;28;20024;-74
2021/04/14 07:21:36;;;;;;;3.72;2.10;;;;;;;;;;5087801;28;20471;-73
2021/04/14 07:24:21;;;;;;;2.38;2.17;;;;;;;;;;5081187;28;20153;-73
2021/04/14 07:26:49;;;;;;;4.28;2.15;;;;;;;;;;5093022;28;20043;-73
2021/04/14 07:29:16;;;;;;;4.18;2.70;;;;;;;;;;5099398;28;20031;-73
2021/04/14 07:32:01;;;;;;;3.08;2.40;;;;;;;;;;5094505;28;20470;-73
2021/04/14 07:34:39;;;;;;;3.45;1.83;;;;;;;;;;5086993;28;20036;-73
2021/04/14 07:37:09;;;;;;;5.10;2.63;;;;;;;;;;5100135;28;20043;-73
2021/04/14 07:39:36;;;;;;;2.55;2.35;;;;;;;;;;5091636;28;20054;-73
2021/04/14 07:42:12;;;;;;;2.50;1.58;;;;;;;;;;5102694;28;20034;-73
2021/04/14 07:44:41;;;;;;;3.78;2.08;;;;;;;;;;5095437;28;20032;-73
2021/04/14 07:47:11;;;;;;;4.88;2.30;;;;;;;;;;5091094;28;20095;-73
2021/04/14 07:49:38;;;;;;;2.78;1.98;;;;;;;;;;5093753;28;20039;-74
2021/04/14 07:52:05;;;;;;;2.67;2.47;;;;;;;;;;5097550;28;20036;-73
2021/04/14 07:54:40;;;;;;;4.43;2.97;;;;;;;;;;5093717;28;20036;-73
2021/04/14 07:57:07;;;;;;;5.88;2.67;;;;;;;;;;5092812;28;20059;-74
2021/04/14 07:59:34;;;;;;;2.42;2.22;;;;;;;;;;5093103;28;20999;-73
2021/04/14 08:02:09;;;;;;;3.13;2.38;;;;;;;;;;5100510;28;20035;-73
2021/04/14 08:04:47;;;;;;;4.82;2.15;;;;;;;;;;5099141;28;20035;-73
2021/04/14 08:07:15;;;;;;;3.58;2.33;;;;;;;;;;5099716;28;20031;-73
2021/04/14 08:10:01;;;;;;;2.67;1.63;;;;;;;;;;5095149;28;20395;-74
2021/04/14 08:12:31;;;;;;;3.72;1.90;;;;;;;;;;5098055;28;20028;-73
2021/04/14 08:15:12;;;;;;;2.00;1.80;;;;;;;;;;5097587;28;20114;-74
2021/04/14 08:17:39;;;;;;;2.58;2.05;;;;;;;;;;5104509;28;20816;-73
2021/04/14 08:20:07;;;;;;;3.40;1.88;;;;;;;;;;5100492;28;20430;-74
2021/04/14 08:22:33;;;;;;;4.18;1.95;;;;;;;;;;5091090;28;20065;-73
2021/04/14 08:25:05;;;;;;;2.53;1.60;;;;;;;;;;5093119;28;20119;-72
2021/04/14 08:27:35;;;;;;;3.33;1.63;;;;;;;;;;5094373;28;20030;-73
2021/04/14 08:30:04;;;;;;;1.70;1.60;;;;;;;;;;5095083;28;20119;-74
2021/04/14 08:32:36;;;;;;;1.88;1.73;;;;;;;;;;5097706;28;20028;-73
2021/04/14 08:35:04;;;;;;;1.70;1.60;;;;;;;;;;5095325;28;20083;-74
2021/04/14 08:37:32;;;;;;;1.33;1.20;;;;;;;;;;5095865;28;20024;-74
2021/04/14 08:40:00;;;;;;;1.65;1.45;;;;;;;;;;5087834;28;20140;-73
2021/04/14 08:42:28;;;;;;;2.35;1.55;;;;;;;;;;5060343;28;20028;-75
2021/04/14 08:44:54;;;;;;;2.15;1.92;;;;;;;;;;5064160;28;20051;-74
2021/04/14 08:47:24;;;;;;;2.03;1.85;;;;;;;;;;5085642;28;20092;-75
2021/04/14 08:50:09;;;;;;;1.92;1.42;;;;;;;;;;5084501;28;20036;-75
2021/04/14 08:52:38;;;;;;;2.42;2.22;;;;;;;;;;5075212;28;20502;-75
2021/04/14 08:55:06;;;;;;;1.75;1.42;;;;;;;;;;5072936;28;20029;-75
2021/04/14 08:57:33;;;;;;;3.08;1.42;;;;;;;;;;5084558;28;20032;-75
2021/04/14 08:59:59;;;;;;;2.95;1.60;;;;;;;;;;5086373;28;20578;-75
2021/04/14 09:02:26;;;;;;;1.77;1.48;;;;;;;;;;5088981;28;20028;-75
2021/04/14 09:04:53;;;;;;;2.25;1.17;;;;;;;;;;5074206;28;20577;-74
2021/04/14 09:07:24;;;;;;;1.63;1.50;;;;;;;;;;5080723;28;20561;-75
2021/04/14 09:09:52;;;;;;;2.97;2.28;;;;;;;;;;5086995;28;20024;-75
2021/04/14 09:12:29;;;;;;;2.28;1.27;;;;;;;;;;5087612;28;20059;-75
2021/04/14 09:15:09;;;;;;;1.40;1.23;;;;;;;;;;5090645;28;20032;-75
2021/04/14 09:17:36;;;;;;;4.15;1.80;;;;;;;;;;5087171;28;20024;-75
2021/04/14 09:20:20;;;;;;;3.38;1.88;;;;;;;;;;5090655;28;20032;-75
2021/04/14 09:22:57;;;;;;;1.92;1.73;;;;;;;;;;5088983;28;20072;-75
2021/04/14 09:25:28;;;;;;;2.33;1.40;;;;;;;;;;5090242;28;20439;-74
2021/04/14 09:27:58;;;;;;;1.90;1.00;;;;;;;;;;5090896;28;20124;-75
2021/04/14 09:30:45;;;;;;;2.17;1.23;;;;;;;;;;5089863;28;20036;-75
2021/04/14 09:33:16;;;;;;;1.50;1.30;;;;;;;;;;5076929;28;20773;-76
2021/04/14 09:35:55;;;;;;;2.53;1.05;;;;;;;;;;5090462;28;20028;-76
2021/04/14 09:38:27;;;;;;;3.28;1.38;;;;;;;;;;5089295;28;20040;-76
2021/04/14 09:41:06;;;;;;;1.25;1.15;;;;;;;;;;5082791;28;20036;-75
2021/04/14 09:43:37;;;;;;;3.75;1.30;;;;;;;;;;5075870;28;20082;-76
2021/04/14 09:46:08;;;;;;;2.72;1.58;;;;;;;;;;5073955;28;20024;-75
2021/04/14 09:48:50;;;;;;;1.75;0.98;;;;;;;;;;5078919;28;20499;-75
2021/04/14 09:51:24;;;;;;;1.42;1.02;;;;;;;;;;5078612;28;20032;-75
2021/04/14 09:53:54;;;;;;;1.20;1.10;;;;;;;;;;5087244;28;20089;-75
2021/04/14 09:56:23;;;;;;;1.13;0.93;;;;;;;;;;5086650;28;20063;-75
2021/04/14 09:58:52;;;;;;;3.35;1.60;;;;;;;;;;5086915;28;20028;-76
2021/04/14 10:01:27;;;;;;;3.58;1.52;;;;;;;;;;5089345;28;20565;-75
2021/04/14 10:03:57;;;;;;;0.82;0.82;;;;;;;;;;5087121;28;20071;-76
2021/04/14 10:06:24;;;;;;;5.63;1.80;;;;;;;;;;5085973;28;20111;-76
2021/04/14 10:08:56;;;;;;;2.42;2.15;;;;;;;;;;5089017;28;20096;-76
2021/04/14 10:11:27;;;;;;;1.92;1.38;;;;;;;;;;5088754;28;20043;-75
2021/04/14 10:13:55;;;;;;;1.15;1.05;;;;;;;;;;5089294;28;20364;-76
2021/04/14 10:16:22;;;;;;;3.47;1.90;;;;;;;;;;5060429;28;20348;-75
2021/04/14 10:18:51;;;;;;;1.75;1.30;;;;;;;;;;5075550;28;20075;-79
2021/04/14 10:21:24;;;;;;;2.10;1.27;;;;;;;;;;5071405;28;20448;-74
2021/04/14 10:24:04;;;;;;;6.88;1.67;;;;;;;;;;5074030;28;20047;-75
2021/04/14 10:26:34;;;;;;;1.27;1.02;;;;;;;;;;5073114;28;20433;-76
2021/04/14 10:29:01;;;;;;;1.40;1.30;;;;;;;;;;5089249;28;20538;-76
2021/04/14 10:31:30;;;;;;;1.98;1.00;;;;;;;;;;5084663;28;20085;-74
2021/04/14 10:34:05;;;;;;;1.23;1.10;;;;;;;;;;5089080;28;20032;-73
2021/04/14 10:36:32;;;;;;;3.17;1.73;;;;;;;;;;5087906;28;20066;-74
2021/04/14 10:39:09;;;;;;;1.10;1.00;;;;;;;;;;5095263;28;20048;-74
2021/04/14 10:41:35;;;;;;;1.38;1.13;;;;;;;;;;5095690;28;20085;-74
2021/04/14 10:44:01;;;;;;;3.05;1.08;;;;;;;;;;5103761;28;20106;-73
2021/04/14 10:46:36;;;;;;;3.72;1.80;;;;;;;;;;5098483;28;20470;-74
2021/04/14 10:49:03;;;;;;;0.93;0.90;;;;;;;;;;5097327;28;20028;-74
2021/04/14 10:51:40;;;;;;;1.08;0.98;;;;;;;;;;5099257;28;20051;-74
2021/04/14 10:54:11;;;;;;;3.83;1.52;;;;;;;;;;5096750;28;20518;-73
2021/04/14 10:56:38;;;;;;;4.22;1.42;;;;;;;;;;5096016;28;20032;-74
2021/04/14 10:59:07;;;;;;;1.67;1.13;;;;;;;;;;5100666;28;20031;-74
2021/04/14 11:01:36;;;;;;;5.78;1.23;;;;;;;;;;5091806;28;20389;-73
2021/04/14 11:04:02;;;;;;;2.08;1.38;;;;;;;;;;5105986;28;20028;-74
2021/04/14 11:06:28;;;;;;;1.25;1.15;;;;;;;;;;5089712;28;20050;-74
2021/04/14 11:08:55;;;;;;;2.50;0.90;;;;;;;;;;5109770;28;20028;-74
2021/04/14 11:11:22;;;;;;;3.22;1.15;;;;;;;;;;5100252;28;20050;-74
2021/04/14 11:13:49;;;;;;;1.00;0.90;;;;;;;;;;5106853;28;20020;-74
2021/04/14 11:16:16;;;;;;;1.73;1.05;;;;;;;;;;5097870;28;20141;-74
2021/04/14 11:18:43;;;;;;;1.52;1.25;;;;;;;;;;5109126;28;20119;-74
2021/04/14 11:21:22;;;;;;;2.22;0.90;;;;;;;;;;5098709;28;20027;-74
2021/04/14 11:23:48;;;;;;;1.27;1.20;;;;;;;;;;5100980;28;20027;-74
2021/04/14 11:26:14;;;;;;;0.93;0.90;;;;;;;;;;5100579;28;20057;-74
2021/04/14 11:28:48;;;;;;;3.05;1.30;;;;;;;;;;5106154;28;20077;-74
2021/04/14 11:31:25;;;;;;;5.80;2.28;;;;;;;;;;5104721;28;20127;-75
2021/04/14 11:33:52;;;;;;;2.83;1.58;;;;;;;;;;5088800;28;20350;-75
2021/04/14 11:36:19;;;;;;;4.28;1.25;;;;;;;;;;5087610;28;20028;-75
2021/04/14 11:38:57;;;;;;;3.17;2.85;;;;;;;;;;5079953;28;20059;-75
2021/04/14 11:41:28;;;;;;;2.92;2.25;;;;;;;;;;5100302;28;20024;-75
2021/04/14 11:43:54;;;;;;;5.32;1.67;;;;;;;;;;5084490;28;20530;-76
2021/04/14 11:46:37;;;;;;;2.30;1.58;;;;;;;;;;5093807;28;20019;-76
2021/04/14 11:49:07;;;;;;;2.22;1.58;;;;;;;;;;5087001;28;20044;-77
2021/04/14 11:51:36;;;;;;;2.97;1.90;;;;;;;;;;5084802;28;20100;-76
2021/04/14 11:54:04;;;;;;;2.92;1.92;;;;;;;;;;5072799;28;20031;-75
2021/04/14 11:56:41;;;;;;;3.78;2.00;;;;;;;;;;5078413;28;20036;-73
2021/04/14 11:59:17;;;;;;;3.22;2.92;;;;;;;;;;5094286;28;20098;-76
2021/04/14 12:01:47;;;;;;;3.05;2.13;;;;;;;;;;5094370;28;20068;-76
2021/04/14 12:04:14;;;;;;;3.88;1.50;;;;;;;;;;5088366;28;20395;-76
2021/04/14 12:06:40;;;;;;;6.07;2.03;;;;;;;;;;5074732;28;20025;-79
2021/04/14 12:09:06;;;;;;;2.58;1.55;;;;;;;;;;5084347;28;20040;-77
2021/04/14 12:11:33;;;;;;;1.38;1.25;;;;;;;;;;5082429;28;20617;-76
2021/04/14 12:13:59;;;;;;;2.83;1.67;;;;;;;;;;5096123;28;20463;-76
2021/04/14 12:16:27;;;;;;;3.63;1.60;;;;;;;;;;5094403;28;20405;-76
2021/04/14 12:18:53;;;;;;;1.75;1.27;;;;;;;;;;5103872;28;20024;-77
2021/04/14 12:21:19;;;;;;;2.05;1.73;;;;;;;;;;5101809;28;20549;-76
2021/04/14 12:23:47;;;;;;;2.20;1.50;;;;;;;;;;5107920;28;20526;-77
2021/04/14 12:26:13;;;;;;;10.40;1.67;;;;;;;;;;5107915;28;20497;-76
2021/04/14 12:28:39;;;;;;;2.28;1.63;;;;;;;;;;5105453;28;20493;-76
2021/04/14 12:31:05;;;;;;;3.20;1.50;;;;;;;;;;5098268;28;20117;-77
2021/04/14 12:33:32;;;;;;;3.05;1.27;;;;;;;;;;5106509;28;20066;-77
2021/04/14 12:35:58;;;;;;;3.50;1.45;;;;;;;;;;5109398;28;20063;-77
2021/04/14 12:38:24;;;;;;;2.83;1.25;;;;;;;;;;5110655;28;20536;-76
2021/04/14 12:40:50;;;;;;;1.33;1.10;;;;;;;;;;5111972;28;20489;-78
2021/04/14 12:43:17;;;;;;;2.97;1.45;;;;;;;;;;5104682;28;20024;-77
2021/04/14 12:45:47;;;;;;;4.28;1.50;;;;;;;;;;5096046;28;20043;-77
2021/04/14 12:48:24;;;;;;;2.92;1.73;;;;;;;;;;5099255;28;20021;-77
2021/04/14 12:51:02;;;;;;;3.42;1.52;;;;;;;;;;5095406;28;20126;-77
2021/04/14 12:53:29;;;;;;;3.88;1.67;;;;;;;;;;5106637;28;20461;-77
2021/04/14 12:55:59;;;;;;;1.35;1.25;;;;;;;;;;5101371;28;20028;-77
2021/04/14 12:58:44;;;;;;;2.92;1.35;;;;;;;;;;5070030;28;20480;-77
2021/04/14 13:01:10;;;;;;;5.00;2.08;;;;;;;;;;5070386;28;20115;-76
2021/04/14 13:03:38;;;;;;;1.55;1.27;;;;;;;;;;5096579;28;20066;-78
2021/04/14 13:06:07;;;;;;;2.50;1.80;;;;;;;;;;5110636;28;20024;-77
2021/04/14 13:08:36;;;;;;;4.47;1.83;;;;;;;;;;5110386;28;20043;-77
2021/04/14 13:11:10;;;;;;;3.00;1.30;;;;;;;;;;5108977;28;20085;-77
2021/04/14 13:13:37;;;;;;;7.00;2.75;;;;;;;;;;5110253;28;20127;-77
2021/04/14 13:16:15;;;;;;;4.07;1.52;;;;;;;;;;5089704;28;20097;-77
2021/04/14 13:18:41;;;;;;;1.55;1.30;;;;;;;;;;5094851;28;20040;-78
2021/04/14 13:21:10;;;;;;;3.13;1.75;;;;;;;;;;5108840;28;20110;-78
2021/04/14 13:23:49;;;;;;;3.00;1.35;;;;;;;;;;5110048;28;20031;-78
2021/04/14 13:26:21;;;;;;;2.97;1.45;;;;;;;;;;5110710;28;20114;-80
2021/04/14 13:28:51;;;;;;;2.13;1.30;;;;;;;;;;5111076;28;20026;-79
2021/04/14 13:31:33;;;;;;;1.45;1.35;;;;;;;;;;5110252;28;20036;-78
2021/04/14 13:34:12;;;;;;;4.90;2.22;;;;;;;;;;5110951;28;20030;-78
2021/04/14 13:36:42;;;;;;;5.72;1.63;;;;;;;;;;5109411;28;20032;-77
2021/04/14 13:39:29;;;;;;;2.25;1.10;;;;;;;;;;5092518;28;20182;-78
2021/04/14 13:41:59;;;;;;;4.63;1.10;;;;;;;;;;5110592;28;20074;-78
2021/04/14 13:44:36;;;;;;;2.38;1.17;;;;;;;;;;5096877;28;20127;-80
2021/04/14 13:47:10;;;;;;;2.35;1.30;;;;;;;;;;5102504;28;20410;-81
2021/04/14 13:49:39;;;;;;;3.50;2.15;;;;;;;;;;5104510;28;20436;-79
2021/04/14 13:52:07;;;;;;;1.75;1.15;;;;;;;;;;5087220;28;20032;-77
2021/04/14 13:54:34;;;;;;;1.52;1.10;;;;;;;;;;5094844;28;20020;-77
2021/04/14 13:57:03;;;;;;;3.67;1.55;;;;;;;;;;5091978;28;20024;-77
2021/04/14 13:59:47;;;;;;;3.05;1.33;;;;;;;;;;5088587;28;20024;-78
2021/04/14 14:02:16;;;;;;;5.53;1.33;;;;;;;;;;5091486;28;20088;-76
2021/04/14 14:04:42;;;;;;;4.13;1.02;;;;;;;;;;5096542;28;20032;-77
2021/04/14 14:07:19;;;;;;;3.97;2.13;;;;;;;;;;5101572;28;20076;-78
2021/04/14 14:09:53;;;;;;;1.83;1.20;;;;;;;;;;5096556;28;20028;-78
2021/04/14 14:12:21;;;;;;;3.20;1.48;;;;;;;;;;5088844;28;20060;-77
2021/04/14 14:14:50;;;;;;;1.25;1.02;;;;;;;;;;5093893;28;20512;-78
2021/04/14 14:17:29;;;;;;;3.00;1.65;;;;;;;;;;5093612;28;20933;-77
2021/04/14 14:19:58;;;;;;;3.40;1.33;;;;;;;;;;5101973;28;20103;-77
2021/04/14 14:22:26;;;;;;;2.38;1.60;;;;;;;;;;5101731;28;20027;-77
2021/04/14 14:24:52;;;;;;;4.03;1.25;;;;;;;;;;5095494;28;20028;-77
2021/04/14 14:27:19;;;;;;;1.55;1.45;;;;;;;;;;5095899;28;20066;-77
2021/04/14 14:29:45;;;;;;;6.30;1.42;;;;;;;;;;5093612;28;20028;-75
2021/04/14 14:32:19;;;;;;;4.18;2.03;;;;;;;;;;5103651;28;20169;-77
2021/04/14 14:34:47;;;;;;;1.98;1.23;;;;;;;;;;5096390;28;20165;-77
2021/04/14 14:37:16;;;;;;;3.42;1.90;;;;;;;;;;5096451;28;20032;-78
2021/04/14 14:39:47;;;;;;;4.28;1.55;;;;;;;;;;5080017;28;20534;-78
2021/04/14 14:42:15;;;;;;;1.20;1.02;;;;;;;;;;5076951;28;20478;-77
2021/04/14 14:45:01;;;;;;;2.35;1.40;;;;;;;;;;5087827;28;20814;-78
2021/04/14 14:47:29;;;;;;;1.40;1.30;;;;;;;;;;5086373;28;20024;-77
2021/04/14 14:49:57;;;;;;;2.38;1.40;;;;;;;;;;5076763;28;20033;-77
2021/04/14 14:52:23;;;;;;;2.60;1.27;;;;;;;;;;5077793;28;20065;-76
2021/04/14 14:54:53;;;;;;;2.67;1.00;;;;;;;;;;5083616;28;20036;-78
2021/04/14 14:57:22;;;;;;;3.30;1.10;;;;;;;;;;5078050;28;20065;-76
2021/04/14 14:59:49;;;;;;;4.03;1.40;;;;;;;;;;5080809;28;20521;-76